Webcam Flughafen St.Gallen-Altenrhein

Live-Bilder und Zeitraffer LSZR / ACH.

 

Live aus Altenrhein
LIVE
LSZR 122220Z AUTO VRB01KT CAVOK 01/M02 Q0994
Zeitraffer heute
2019-12-12 00:14:58
LSZR 112250Z AUTO VRB02KT 9999 OVC034 03/02 Q1009